createdAt,value
2022-11-09T00:00:48.752Z,94.07
2022-11-09T00:03:15.628Z,94.13
2022-11-09T00:05:42.179Z,94.15
2022-11-09T00:08:10.118Z,94.43
2022-11-09T00:10:37.882Z,94.65
2022-11-09T00:13:05.310Z,94.21
2022-11-09T00:15:31.912Z,94.97
2022-11-09T00:18:01.142Z,95.15
2022-11-09T00:20:27.839Z,95.43
2022-11-09T00:22:54.384Z,95.36
2022-11-09T00:25:20.907Z,95.47
2022-11-09T00:27:47.451Z,95.84
2022-11-09T00:30:14.155Z,95.75
2022-11-09T00:32:40.926Z,95.93
2022-11-09T00:35:07.778Z,95.92
2022-11-09T00:37:34.395Z,96.19
2022-11-09T00:40:01.014Z,96.01
2022-11-09T00:42:27.606Z,96.29
2022-11-09T00:44:54.129Z,96.15
2022-11-09T00:47:20.717Z,96.07
2022-11-09T00:49:47.286Z,96.27
2022-11-09T00:52:13.902Z,96.36
2022-11-09T00:54:40.445Z,96.32
2022-11-09T00:57:06.938Z,96.48
2022-11-09T00:59:33.532Z,96.75
2022-11-09T01:02:00.000Z,96.67
2022-11-09T01:04:26.527Z,96.86
2022-11-09T01:06:53.085Z,97.01
2022-11-09T01:09:19.650Z,96.90
2022-11-09T01:11:46.187Z,96.93
2022-11-09T01:14:12.852Z,96.76
2022-11-09T01:16:39.484Z,96.87
2022-11-09T01:19:06.194Z,96.80
2022-11-09T01:21:32.801Z,97.20
2022-11-09T01:23:59.774Z,96.90
2022-11-09T01:26:26.198Z,97.25
2022-11-09T01:28:52.891Z,97.23
2022-11-09T01:31:21.285Z,96.85
2022-11-09T01:33:48.236Z,96.95
2022-11-09T01:36:21.277Z,96.81
2022-11-09T01:38:48.648Z,97.06
2022-11-09T01:41:21.810Z,96.72
2022-11-09T01:44:08.761Z,97.08
2022-11-09T01:46:56.307Z,97.27
2022-11-09T01:49:41.277Z,97.31
2022-11-09T01:52:22.850Z,97.08
2022-11-09T01:54:53.742Z,96.82
2022-11-09T01:57:25.928Z,96.81
2022-11-09T01:59:58.228Z,96.66
2022-11-09T02:02:24.786Z,96.86
2022-11-09T02:04:56.832Z,96.69
2022-11-09T02:07:24.569Z,96.88
2022-11-09T02:10:14.044Z,97.12
2022-11-09T02:12:41.124Z,97.59
2022-11-09T02:15:09.473Z,97.82
2022-11-09T02:17:36.644Z,97.84
2022-11-09T02:20:09.109Z,97.97
2022-11-09T02:22:36.251Z,98.05
2022-11-09T02:25:03.994Z,97.77
2022-11-09T02:27:30.572Z,97.52
2022-11-09T02:29:58.715Z,97.29
2022-11-09T02:32:28.688Z,97.41
2022-11-09T02:34:55.423Z,97.06
2022-11-09T02:37:43.276Z,97.19
2022-11-09T02:40:16.727Z,97.09
2022-11-09T02:42:43.636Z,96.96
2022-11-09T02:45:10.700Z,96.46
2022-11-09T02:47:37.518Z,96.63
2022-11-09T02:50:04.417Z,96.86
2022-11-09T02:52:30.932Z,96.54
2022-11-09T02:54:57.599Z,96.49
2022-11-09T02:57:24.249Z,96.26
2022-11-09T02:59:50.775Z,96.68
2022-11-09T03:02:17.306Z,96.63
2022-11-09T03:04:43.780Z,96.78
2022-11-09T03:07:10.291Z,96.69
2022-11-09T03:09:36.954Z,96.92
2022-11-09T03:12:26.455Z,97.08
2022-11-09T03:14:52.943Z,97.49
2022-11-09T03:17:19.488Z,97.44
2022-11-09T03:19:46.036Z,97.37
2022-11-09T03:22:12.530Z,97.38
2022-11-09T03:24:39.021Z,97.71
2022-11-09T03:27:05.535Z,97.27
2022-11-09T03:29:31.993Z,97.42
2022-11-09T03:31:58.501Z,97.30
2022-11-09T03:34:25.044Z,97.72
2022-11-09T03:36:51.524Z,97.42
2022-11-09T03:39:18.034Z,97.54
2022-11-09T03:41:44.535Z,97.81
2022-11-09T03:44:11.050Z,97.64
2022-11-09T03:46:39.577Z,97.75
2022-11-09T03:49:06.026Z,97.53
2022-11-09T03:51:32.520Z,97.95
2022-11-09T03:53:58.977Z,98.14
2022-11-09T03:56:25.550Z,98.23
2022-11-09T03:58:52.092Z,97.95
2022-11-09T04:01:18.626Z,98.58
2022-11-09T04:03:45.092Z,99.03
2022-11-09T04:06:11.579Z,99.11
2022-11-09T04:08:38.066Z,99.09
2022-11-09T04:11:04.519Z,99.04
2022-11-09T04:13:30.976Z,99.29
2022-11-09T04:15:57.397Z,98.64
2022-11-09T04:18:26.898Z,98.58
2022-11-09T04:20:53.394Z,98.66
2022-11-09T04:23:20.122Z,98.58
2022-11-09T04:25:46.745Z,98.88
2022-11-09T04:28:13.294Z,98.64
2022-11-09T04:30:39.995Z,98.95
2022-11-09T04:33:06.783Z,98.96
2022-11-09T04:35:34.022Z,98.62
2022-11-09T04:38:03.299Z,98.97
2022-11-09T04:40:32.106Z,99.25
2022-11-09T04:43:03.651Z,99.10
2022-11-09T04:45:30.572Z,98.99
2022-11-09T04:48:07.256Z,99.49
2022-11-09T04:50:34.406Z,99.56
2022-11-09T04:53:07.888Z,99.63
2022-11-09T04:55:35.983Z,99.86
2022-11-09T04:58:02.596Z,99.90
2022-11-09T05:00:29.228Z,99.79
2022-11-09T05:02:55.699Z,99.50
2022-11-09T05:05:22.156Z,99.48
2022-11-09T05:07:48.630Z,99.62
2022-11-09T05:10:15.492Z,99.46
2022-11-09T05:12:45.833Z,99.19
2022-11-09T05:15:12.808Z,98.80
2022-11-09T05:17:39.341Z,99.08
2022-11-09T05:20:06.261Z,98.88
2022-11-09T05:22:51.223Z,98.67
2022-11-09T05:25:17.693Z,98.24
2022-11-09T05:27:44.152Z,97.99
2022-11-09T05:30:11.327Z,98.12
2022-11-09T05:32:40.527Z,97.91
2022-11-09T05:35:07.569Z,98.00
2022-11-09T05:37:34.075Z,98.18
2022-11-09T05:40:00.883Z,97.94
2022-11-09T05:42:27.337Z,97.49
2022-11-09T05:44:53.794Z,97.59
2022-11-09T05:47:20.267Z,97.31
2022-11-09T05:49:46.975Z,97.45
2022-11-09T05:52:13.561Z,97.45
2022-11-09T05:54:40.059Z,97.60
2022-11-09T05:57:06.499Z,97.35
2022-11-09T05:59:35.413Z,97.36
2022-11-09T06:02:01.911Z,97.30
2022-11-09T06:04:28.453Z,97.60
2022-11-09T06:06:55.094Z,97.34
2022-11-09T06:09:27.468Z,97.25
2022-11-09T06:11:53.880Z,97.28
2022-11-09T06:14:20.291Z,97.42
2022-11-09T06:16:46.818Z,97.33
2022-11-09T06:19:13.306Z,97.36
2022-11-09T06:21:39.815Z,97.40
2022-11-09T06:24:06.625Z,97.58
2022-11-09T06:26:33.026Z,97.71
2022-11-09T06:29:02.526Z,97.66
2022-11-09T06:31:29.095Z,97.78
2022-11-09T06:33:56.095Z,97.95
2022-11-09T06:36:22.598Z,98.23
2022-11-09T06:38:52.437Z,97.97
2022-11-09T06:41:19.342Z,97.78
2022-11-09T06:43:46.035Z,97.79
2022-11-09T06:46:12.952Z,97.70
2022-11-09T06:48:39.489Z,97.80
2022-11-09T06:51:06.930Z,97.92
2022-11-09T06:53:35.163Z,98.04
2022-11-09T06:56:03.009Z,98.25
2022-11-09T06:58:32.450Z,98.28
2022-11-09T07:00:59.557Z,98.32
2022-11-09T07:03:26.572Z,97.89
2022-11-09T07:05:53.295Z,98.23
2022-11-09T07:08:20.229Z,97.81
2022-11-09T07:10:46.883Z,97.76
2022-11-09T07:13:13.553Z,97.66
2022-11-09T07:15:40.650Z,97.66
2022-11-09T07:18:08.375Z,97.22
2022-11-09T07:20:35.113Z,97.06
2022-11-09T07:23:01.604Z,96.66
2022-11-09T07:25:32.102Z,96.53
2022-11-09T07:28:04.163Z,95.85
2022-11-09T07:30:30.801Z,95.63
2022-11-09T07:33:09.332Z,95.42
2022-11-09T07:35:36.606Z,95.70
2022-11-09T07:38:03.898Z,95.67
2022-11-09T07:40:30.837Z,95.75
2022-11-09T07:43:01.351Z,95.73
2022-11-09T07:45:36.497Z,95.67
2022-11-09T07:48:10.900Z,95.30
2022-11-09T07:50:38.955Z,95.18
2022-11-09T07:53:07.182Z,95.15
2022-11-09T07:55:36.798Z,94.99
2022-11-09T07:58:06.237Z,94.93
2022-11-09T08:00:36.056Z,94.46
2022-11-09T08:03:02.591Z,94.39
2022-11-09T08:05:30.109Z,94.16
2022-11-09T08:07:58.729Z,93.74
2022-11-09T08:10:32.207Z,93.01
2022-11-09T08:13:08.507Z,92.65
2022-11-09T08:15:36.322Z,92.02
2022-11-09T08:18:07.058Z,91.40
2022-11-09T08:20:34.714Z,91.03
2022-11-09T08:23:05.161Z,91.04
2022-11-09T08:25:35.317Z,91.63
2022-11-09T08:28:03.454Z,91.31
2022-11-09T08:30:30.599Z,91.33
2022-11-09T08:32:59.411Z,91.61
2022-11-09T08:35:26.803Z,91.53
2022-11-09T08:37:54.559Z,91.96
2022-11-09T08:40:24.716Z,92.31
2022-11-09T08:42:52.318Z,91.88
2022-11-09T08:45:19.086Z,91.96
2022-11-09T08:47:46.008Z,92.41
2022-11-09T08:50:15.711Z,92.67
2022-11-09T08:52:42.319Z,92.61
2022-11-09T08:55:09.200Z,92.82
2022-11-09T08:57:35.691Z,93.27
2022-11-09T09:00:02.357Z,93.26
2022-11-09T09:04:56.641Z,93.89
2022-11-09T09:07:23.251Z,93.86
2022-11-09T09:09:49.986Z,94.25
2022-11-09T09:12:16.542Z,94.41
2022-11-09T09:14:43.328Z,94.50
2022-11-09T09:17:10.568Z,94.54
2022-11-09T09:19:37.302Z,94.67
2022-11-09T09:22:03.819Z,94.60
2022-11-09T09:24:30.427Z,94.39
2022-11-09T09:26:57.117Z,94.33
2022-11-09T09:29:23.739Z,94.64
2022-11-09T09:31:50.334Z,94.43
2022-11-09T09:34:17.104Z,94.89
2022-11-09T09:36:47.928Z,95.28
2022-11-09T09:39:15.541Z,95.74
2022-11-09T09:41:51.241Z,95.93
2022-11-09T09:44:36.651Z,95.50
2022-11-09T09:47:12.755Z,96.49
2022-11-09T09:49:49.180Z,96.14
2022-11-09T09:52:29.491Z,96.54
2022-11-09T09:55:07.139Z,96.82
2022-11-09T09:57:40.545Z,96.77
2022-11-09T10:00:15.758Z,97.41
2022-11-09T10:02:43.331Z,97.70
2022-11-09T10:05:16.006Z,97.71
2022-11-09T10:08:01.060Z,98.40
2022-11-09T10:10:49.421Z,98.84
2022-11-09T10:13:27.821Z,99.39
2022-11-09T10:16:22.257Z,99.71
2022-11-09T10:19:07.648Z,99.58
2022-11-09T10:21:40.381Z,100.00
2022-11-09T10:24:25.276Z,100.00
2022-11-09T10:26:55.734Z,100.00
2022-11-09T10:29:46.387Z,100.00
2022-11-09T10:32:15.882Z,100.00
2022-11-09T10:34:48.205Z,100.00
2022-11-09T10:37:23.351Z,100.00
2022-11-09T10:39:56.688Z,100.00
2022-11-09T10:42:23.288Z,100.00
2022-11-09T10:44:49.915Z,100.00
2022-11-09T10:47:18.401Z,100.00
2022-11-09T10:49:45.136Z,100.00
2022-11-09T10:52:47.531Z,100.00
2022-11-09T10:55:22.643Z,100.00
2022-11-09T10:58:15.694Z,100.00
2022-11-09T11:01:02.988Z,100.00
2022-11-09T11:03:32.779Z,100.00
2022-11-09T11:06:19.591Z,100.00
2022-11-09T11:08:49.807Z,100.00
2022-11-09T11:11:35.810Z,100.00
2022-11-09T11:14:23.121Z,100.00
2022-11-09T11:16:52.943Z,100.00
2022-11-09T11:19:36.397Z,100.00
2022-11-09T11:22:11.699Z,100.00
2022-11-09T11:24:45.396Z,100.00
2022-11-09T11:27:23.575Z,100.00
2022-11-09T11:29:58.951Z,100.00
2022-11-09T11:32:26.284Z,100.00
2022-11-09T11:35:01.318Z,100.00
2022-11-09T11:37:37.936Z,100.00
2022-11-09T11:40:20.399Z,100.00
2022-11-09T11:43:31.392Z,99.52
2022-11-09T11:46:38.289Z,99.78
2022-11-09T11:49:27.851Z,99.08
2022-11-09T11:52:12.464Z,98.17
2022-11-09T11:54:45.250Z,98.40
2022-11-09T11:57:28.231Z,98.21
2022-11-09T12:00:06.307Z,97.86
2022-11-09T12:03:08.343Z,97.36
2022-11-09T12:05:58.379Z,96.55
2022-11-09T12:08:28.903Z,97.05
2022-11-09T12:11:20.843Z,97.69
2022-11-09T12:14:05.976Z,97.52
2022-11-09T12:17:05.672Z,96.13
2022-11-09T12:19:59.407Z,93.20
2022-11-09T12:22:34.188Z,93.08
2022-11-09T12:25:29.492Z,92.75
2022-11-09T12:28:03.340Z,92.77
2022-11-09T12:31:00.274Z,92.98
2022-11-09T12:34:11.419Z,93.06
2022-11-09T12:36:50.673Z,92.47
2022-11-09T12:39:38.050Z,91.47
2022-11-09T12:42:10.786Z,91.02
2022-11-09T12:44:48.396Z,91.05
2022-11-09T12:47:20.750Z,90.83
2022-11-09T12:49:47.597Z,91.24
2022-11-09T12:52:19.531Z,90.41
2022-11-09T12:54:50.050Z,90.51
2022-11-09T12:57:23.000Z,90.07
2022-11-09T12:59:53.432Z,90.12
2022-11-09T13:02:53.171Z,90.65
2022-11-09T13:05:33.137Z,91.07
2022-11-09T13:08:01.467Z,91.01
2022-11-09T13:10:32.449Z,91.64
2022-11-09T13:13:21.058Z,91.03
2022-11-09T13:16:11.337Z,90.67
2022-11-09T13:18:42.883Z,90.31
2022-11-09T13:21:21.087Z,90.47
2022-11-09T13:24:10.593Z,90.15
2022-11-09T13:26:38.410Z,90.17
2022-11-09T13:29:40.482Z,90.37
2022-11-09T13:32:12.993Z,90.17
2022-11-09T13:34:55.438Z,89.88
2022-11-09T13:37:40.711Z,89.82
2022-11-09T13:40:32.542Z,90.13
2022-11-09T13:43:04.329Z,90.08
2022-11-09T13:45:47.853Z,90.33
2022-11-09T13:48:25.732Z,89.81
2022-11-09T13:50:57.682Z,89.87
2022-11-09T13:53:36.205Z,89.37
2022-11-09T13:56:28.220Z,89.51
2022-11-09T13:58:59.593Z,89.54
2022-11-09T14:01:48.176Z,89.73
2022-11-09T14:04:31.919Z,90.22
2022-11-09T14:07:07.334Z,90.18
2022-11-09T14:10:03.140Z,89.66
2022-11-09T14:12:54.475Z,88.06
2022-11-09T14:15:39.976Z,88.87
2022-11-09T14:18:35.855Z,89.82
2022-11-09T14:21:26.603Z,90.00
2022-11-09T14:23:54.181Z,89.79
2022-11-09T14:26:23.727Z,90.32
2022-11-09T14:28:50.541Z,89.64
2022-11-09T14:31:24.523Z,89.47
2022-11-09T14:34:05.995Z,89.97
2022-11-09T14:36:35.213Z,90.23
2022-11-09T14:39:16.613Z,90.26
2022-11-09T14:41:44.843Z,90.54
2022-11-09T14:44:30.610Z,91.14
2022-11-09T14:46:57.320Z,91.41
2022-11-09T14:49:27.007Z,91.42
2022-11-09T14:51:53.762Z,91.34
2022-11-09T14:54:25.716Z,91.89
2022-11-09T14:56:54.301Z,91.95
2022-11-09T14:59:36.109Z,91.99
2022-11-09T15:02:06.973Z,92.26
2022-11-09T15:04:58.285Z,92.72
2022-11-09T15:07:28.406Z,92.53
2022-11-09T15:09:58.334Z,92.90
2022-11-09T15:12:25.816Z,92.95
2022-11-09T15:14:58.360Z,93.62
2022-11-09T15:17:30.159Z,93.99
2022-11-09T15:19:59.490Z,93.85
2022-11-09T15:22:52.589Z,94.57
2022-11-09T15:25:19.061Z,94.92
2022-11-09T15:27:57.900Z,95.15
2022-11-09T15:30:43.236Z,95.53
2022-11-09T15:33:24.439Z,95.46
2022-11-09T15:35:56.856Z,95.82
2022-11-09T15:38:35.624Z,95.96
2022-11-09T15:41:04.081Z,96.50
2022-11-09T15:43:33.587Z,96.34
2022-11-09T15:46:00.987Z,96.46
2022-11-09T15:48:29.825Z,96.74
2022-11-09T15:50:56.474Z,96.85
2022-11-09T15:53:23.502Z,97.26
2022-11-09T15:55:50.645Z,97.50
2022-11-09T15:58:19.407Z,97.80
2022-11-09T16:00:48.782Z,97.75
2022-11-09T16:03:17.453Z,97.99
2022-11-09T16:05:47.248Z,98.02
2022-11-09T16:08:14.059Z,98.06
2022-11-09T16:10:42.073Z,98.37
2022-11-09T16:13:10.309Z,98.18
2022-11-09T16:15:39.994Z,98.23
2022-11-09T16:18:06.561Z,98.27
2022-11-09T16:20:33.079Z,98.43
2022-11-09T16:23:01.265Z,98.64
2022-11-09T16:25:27.745Z,98.58
2022-11-09T16:27:54.276Z,98.55
2022-11-09T16:30:21.621Z,98.31
2022-11-09T16:32:48.186Z,97.85
2022-11-09T16:35:26.568Z,97.93
2022-11-09T16:37:55.308Z,98.10
2022-11-09T16:40:22.369Z,98.10
2022-11-09T16:42:50.717Z,98.24
2022-11-09T16:45:17.413Z,98.31
2022-11-09T16:47:50.926Z,98.14
2022-11-09T16:50:17.460Z,98.15
2022-11-09T16:52:44.826Z,98.35
2022-11-09T16:55:11.658Z,98.38
2022-11-09T16:57:38.243Z,98.53
2022-11-09T17:00:06.923Z,98.73
2022-11-09T17:02:33.873Z,98.70
2022-11-09T17:05:04.012Z,98.60
2022-11-09T17:07:31.850Z,98.26
2022-11-09T17:09:58.412Z,98.47
2022-11-09T17:12:24.900Z,98.62
2022-11-09T17:14:55.125Z,98.61
2022-11-09T17:17:22.993Z,98.38
2022-11-09T17:19:49.729Z,98.23
2022-11-09T17:22:16.610Z,98.63
2022-11-09T17:24:43.506Z,98.74
2022-11-09T17:27:11.551Z,99.04
2022-11-09T17:29:39.072Z,99.01
2022-11-09T17:32:08.065Z,98.96
2022-11-09T17:34:35.694Z,98.88
2022-11-09T17:37:04.741Z,99.16
2022-11-09T17:39:32.067Z,99.22
2022-11-09T17:42:01.621Z,99.14
2022-11-09T17:44:28.161Z,99.05
2022-11-09T17:46:54.726Z,98.68
2022-11-09T17:49:22.849Z,98.58
2022-11-09T17:51:49.288Z,98.74
2022-11-09T17:54:15.895Z,98.84
2022-11-09T17:56:45.604Z,98.52
2022-11-09T17:59:13.233Z,98.44
2022-11-09T18:01:41.787Z,98.65
2022-11-09T18:04:10.363Z,98.96
2022-11-09T18:06:37.940Z,98.72
2022-11-09T18:09:39.559Z,98.65
2022-11-09T18:11:51.592Z,98.92
2022-11-09T18:14:18.229Z,98.68
2022-11-09T18:16:45.419Z,98.46
2022-11-09T18:19:12.465Z,98.58
2022-11-09T18:21:38.902Z,98.65
2022-11-09T18:24:05.765Z,98.89
2022-11-09T18:26:32.894Z,98.80
2022-11-09T18:28:59.430Z,98.85
2022-11-09T18:31:26.101Z,98.92
2022-11-09T18:33:53.303Z,98.94
2022-11-09T18:36:21.562Z,98.52
2022-11-09T18:38:51.243Z,99.07
2022-11-09T18:41:21.772Z,99.09
2022-11-09T18:43:49.779Z,98.96
2022-11-09T18:46:18.063Z,98.65
2022-11-09T18:48:45.193Z,98.79
2022-11-09T18:51:12.549Z,98.88
2022-11-09T18:53:44.252Z,98.52
2022-11-09T18:56:18.583Z,98.28
2022-11-09T18:58:46.139Z,98.30
2022-11-09T19:01:12.904Z,98.42
2022-11-09T19:03:39.589Z,98.95
2022-11-09T19:06:14.054Z,98.55
2022-11-09T19:08:59.151Z,98.61
2022-11-09T19:11:26.026Z,98.99
2022-11-09T19:13:52.552Z,99.18
2022-11-09T19:16:20.322Z,99.10
2022-11-09T19:18:46.925Z,99.26
2022-11-09T19:21:34.126Z,99.28
2022-11-09T19:24:00.676Z,99.38
2022-11-09T19:26:27.360Z,99.50
2022-11-09T19:28:54.236Z,100.00
2022-11-09T19:31:23.012Z,100.00
2022-11-09T19:33:49.769Z,100.00
2022-11-09T19:36:33.039Z,100.00
2022-11-09T19:39:00.074Z,100.00
2022-11-09T19:41:26.541Z,100.00
2022-11-09T19:43:55.874Z,100.00
2022-11-09T19:46:22.996Z,100.00
2022-11-09T19:48:49.363Z,100.00
2022-11-09T19:51:17.764Z,100.00
2022-11-09T19:53:56.421Z,100.00
2022-11-09T19:56:25.832Z,100.00
2022-11-09T19:58:55.239Z,100.00
2022-11-09T20:01:22.502Z,100.00
2022-11-09T20:03:50.569Z,100.00
2022-11-09T20:06:18.405Z,100.00
2022-11-09T20:08:45.643Z,100.00
2022-11-09T20:11:36.776Z,100.00
2022-11-09T20:14:04.728Z,100.00
2022-11-09T20:16:32.695Z,100.00
2022-11-09T20:19:00.471Z,100.00
2022-11-09T20:21:26.988Z,100.00
2022-11-09T20:23:53.839Z,100.00
2022-11-09T20:26:20.679Z,100.00
2022-11-09T20:28:48.055Z,100.00
2022-11-09T20:31:22.948Z,100.00
2022-11-09T20:33:50.139Z,100.00
2022-11-09T20:36:18.803Z,100.00
2022-11-09T20:38:46.910Z,100.00
2022-11-09T20:41:13.665Z,100.00
2022-11-09T20:43:40.481Z,100.00
2022-11-09T20:46:09.740Z,100.00
2022-11-09T20:48:53.569Z,100.00
2022-11-09T20:51:23.142Z,100.00
2022-11-09T20:53:50.790Z,100.00
2022-11-09T20:56:18.469Z,100.00
2022-11-09T20:58:45.058Z,100.00
2022-11-09T21:01:15.579Z,100.00
2022-11-09T21:03:42.992Z,100.00
2022-11-09T21:06:11.310Z,100.00
2022-11-09T21:08:38.294Z,100.00
2022-11-09T21:11:05.803Z,100.00
2022-11-09T21:13:33.012Z,100.00
2022-11-09T21:16:10.572Z,100.00
2022-11-09T21:18:37.121Z,100.00
2022-11-09T21:21:15.836Z,100.00
2022-11-09T21:24:01.611Z,100.00
2022-11-09T21:26:47.435Z,100.00
2022-11-09T21:29:40.909Z,100.00
2022-11-09T21:32:08.504Z,100.00
2022-11-09T21:34:37.161Z,100.00
2022-11-09T21:37:04.907Z,100.00
2022-11-09T21:39:32.131Z,100.00
2022-11-09T21:41:58.798Z,100.00
2022-11-09T21:44:27.454Z,100.00
2022-11-09T21:46:54.069Z,100.00
2022-11-09T21:49:20.744Z,100.00
2022-11-09T21:51:47.482Z,100.00
2022-11-09T21:54:14.074Z,100.00
2022-11-09T21:56:40.641Z,100.00
2022-11-09T21:59:07.775Z,100.00
2022-11-09T22:01:34.808Z,100.00
2022-11-09T22:04:02.076Z,100.00
2022-11-09T22:06:28.838Z,100.00
2022-11-09T22:08:55.515Z,100.00
2022-11-09T22:11:43.121Z,100.00
2022-11-09T22:14:33.447Z,100.00
2022-11-09T22:17:00.347Z,100.00
2022-11-09T22:19:46.013Z,100.00
2022-11-09T22:22:13.380Z,100.00
2022-11-09T22:24:40.672Z,100.00
2022-11-09T22:27:08.001Z,100.00
2022-11-09T22:29:34.613Z,100.00
2022-11-09T22:32:01.220Z,100.00
2022-11-09T22:34:27.915Z,100.00
2022-11-09T22:36:54.446Z,100.00
2022-11-09T22:39:21.161Z,100.00
2022-11-09T22:41:47.705Z,100.00
2022-11-09T22:44:14.356Z,100.00
2022-11-09T22:46:40.968Z,100.00
2022-11-09T22:49:08.588Z,100.00
2022-11-09T22:51:35.294Z,100.00
2022-11-09T22:54:02.415Z,100.00
2022-11-09T22:56:28.971Z,100.00
2022-11-09T22:58:55.518Z,100.00
2022-11-09T23:01:22.080Z,100.00
2022-11-09T23:03:48.651Z,100.00
2022-11-09T23:06:21.636Z,100.00
2022-11-09T23:08:48.929Z,100.00
2022-11-09T23:11:21.070Z,100.00
2022-11-09T23:13:55.113Z,100.00
2022-11-09T23:16:23.483Z,100.00
2022-11-09T23:18:56.477Z,100.00
2022-11-09T23:21:29.038Z,100.00
2022-11-09T23:23:58.355Z,100.00
2022-11-09T23:26:26.543Z,100.00
2022-11-09T23:28:54.099Z,100.00
2022-11-09T23:31:24.720Z,100.00
2022-11-09T23:33:58.161Z,100.00
2022-11-09T23:36:26.276Z,100.00
2022-11-09T23:38:53.489Z,100.00
2022-11-09T23:41:20.348Z,100.00
2022-11-09T23:43:49.627Z,100.00
2022-11-09T23:46:17.560Z,100.00
2022-11-09T23:48:44.170Z,100.00
2022-11-09T23:51:11.046Z,100.00
2022-11-09T23:53:37.948Z,100.00
2022-11-09T23:56:06.881Z,100.00
2022-11-09T23:58:33.638Z,100.00
